< < Back
Terminal Aerodrome Forecast


Current Version              Previous Versions:   1  2  3  4  5  6  7  8  9  

Terminal Aerodrome Forecast

656
FTUS44 KHUN 251725
TAFHSV
TAF
KHSV 251725Z 2518/2618 22010G15KT P6SM FEW035 SCT120 SCT250
     FM260000 19005KT P6SM SCT120 SCT250
     FM260300 17005KT P6SM SCT025 BKN100 BKN250=

Latest METAR

623
SAUS80 KWBC 261600 RRA
MTRHSV
METAR KHSV 261553Z 19011KT 10SM SCT055 31/15 A3014 RMK AO2 SLP199
T03060150


USA.gov is the U.S. government's official web portal to all federal, state and local government web resources and services.